AirNav   TITAN Aviation Fuels
 
 960 users online  

6MS2 Wells Farm Airport
Crystal Springs, Mississippi, USA

GOING TO CRYSTAL SPRINGS?


FAA INFORMATION EFFECTIVE 04 NOVEMBER 2021

Location

FAA Identifier: 6MS2
Lat/Long: 31-59-01.9000N 090-20-07.3000W
31-59.031667N 090-20.121667W
31.9838611,-90.3353611
(estimated)
Elevation: 455 ft. / 139 m (estimated)
From city: 1 mile E of CRYSTAL SPRINGS, MS
Time zone: UTC -5 (UTC -6 during Standard Time)
Zip code: 39059

Airport Operations

Airport use: Private use. Permission required prior to landing
Activation date: 05/2007
Control tower: no
ARTCC: MEMPHIS CENTER
FSS: GREENWOOD FLIGHT SERVICE STATION
Attendance: IRREGULAR
Wind indicator: no
Segmented circle: no

Airport Communications

WX AWOS-3PT at JVW (20 nm N): 118.675 ((601) 857-3887)

Nearby radio navigation aids

VOR radial/distance  VOR name  Freq  Var
MHZr205/29.5MAGNOLIA VORTAC113.2001W

 
NDB name  Hdg/Dist  Freq  Var  ID
TALLULAH112/38.434402ETKH - -.- ....

Airport Services

Runway Information

Runway 9/27

Dimensions: 2700 x 50 ft. / 823 x 15 m
Surface: turf
RUNWAY 9  RUNWAY 27
Traffic pattern: leftleft
Displaced threshold: no600 ft.
DSPLCD 600 FT.
Obstructions: none75 ft. trees, 330 ft. from runway

Airport Ownership and Management from official FAA records

Ownership: Privately-owned
Owner: LARRY CRAIG WELLS
519 HARMONY RD
CRYSTAL SPRING, MS 39059
Phone 601-892-5850
Manager: LARRY CRAIG WELLS
519 HARMONY RD
CRYSTAL SPRING, MS 39059
Phone 601-892-5850

Airport Operational Statistics

Aircraft based on the field: 1
Single engine airplanes: 1
    

Additional Remarks

FOR CD CTC JACKSON APCH AT 601-965-4625, WHEN APCH CLSD CTC MEMPHIS ARTCC AT 901-368-8453/8449.

Instrument Procedures

There are no published instrument procedures at 6MS2.

Some nearby airports with instrument procedures:

M11 - Copiah County Airport (5 nm S)
KJVW - John Bell Williams Airport (20 nm N)
KHKS - Hawkins Field Airport (22 nm N)
1R7 - Brookhaven-Lincoln County Airport (23 nm S)
KJAN - Jackson-Medgar Wiley Evers International Airport (24 nm NE)
 
Loc | Ops | Rwys | IFR | FBO | Links
Com | Nav | Svcs | Stats | Notes
Area around 6MS2 (Wells Farm Airport)
 
Road maps at: MapQuest Bing Google
 
Aerial photo
No photo
 
Sectional chart

 
Airport distance calculator
Flying to Wells Farm Airport? Find the distance to fly.

From to 6MS2

Sunrise and sunset
Times for 30-Nov-2021
 Local
(UTC-6)
 Zulu
(UTC)
Morning civil twilight06:1812:18
Sunrise06:4412:44
Sunset16:5622:56
Evening civil twilight17:2323:23

Current date and time
Zulu (UTC)  01-Dec-2021 04:15:57
Local (UTC-6)  30-Nov-2021 22:15:57
 
METAR
KJVW 
20nm N 
010355Z AUTO 00000KT 10SM CLR 07/07 A3016 RMK AO2
KHKS 
22nm N 
010353Z AUTO 00000KT 10SM CLR 11/07 A3017 RMK AO2 SLP210 T01110072
K1R7 
23nm S 
010355Z AUTO 00000KT 10SM FEW019 FEW024 SCT029 08/08 A3021 RMK AO2 PWINO
KJAN 
24nm NE 
010354Z 17003KT 10SM CLR 09/06 A3017 RMK AO2 SLP215 T00940056
KMBO 
30nm NE 
301415Z AUTO 00000KT 10SM CLR 07/04 A3022 RMK AO2
KVKS 
34nm NW 
010355Z AUTO 00000KT 10SM CLR 08/08 A3015 RMK A01
TAF
KHKS 
22nm N 
301720Z 3018/0118 20007KT P6SM SCT250
KJAN 
24nm NE 
301720Z 3018/0118 19007KT P6SM SCT250
NOTAMs
Click for the latest NOTAMs
NOTAMs are issued by the DoD/FAA and will open in a separate window not controlled by AirNav.

 

 
 

Would you like to see your business listed on this page?

 If your business provides an interesting product or service to pilots, flight crews, aircraft, or users of the Wells Farm Airport, you should consider listing it here.  To start the listing process, click on the button below
 
Add a business
 

Other Pages about Wells Farm Airport

Update a link
 
Copyright © AirNav, LLC. All rights reserved. Privacy Policy  Contact